Aviation Digital Data Service (ADDS)

Output produced by METARs form (0929 UTC 29 July 2015)
found at http://www.aviationweather.gov/adds/metars/
 
KIPT 290854Z AUTO 00000KT 10SM CLR 18/17 A3001 RMK AO2 SLP159 T01830167 55002
KIPT 290754Z AUTO 30003KT 10SM CLR 19/17 A3000 RMK AO2 SLP154 T01890172
KIPT 290654Z AUTO 00000KT 10SM CLR 19/18 A3000 RMK AO2 SLP155 T01940178
KIPT 290554Z AUTO 30003KT 10SM CLR 20/18 A3002 RMK AO2 SLP161 T02000178 10283 20200 52006
KIPT 290454Z AUTO 00000KT 10SM CLR 21/18 A3001 RMK AO2 SLP158 T02060183 403280194
KIPT 290354Z AUTO 34003KT 10SM CLR 22/18 A3001 RMK AO2 SLP158 T02170183
KIPT 290254Z AUTO 32003KT 10SM CLR 22/19 A3000 RMK AO2 SLP156 T02220189 51014
KIPT 290154Z 00000KT 10SM CLR 23/18 A2999 RMK AO2 SLP153 T02280183
KIPT 290054Z 00000KT 10SM CLR 24/19 A2997 RMK AO2 SLP147 T02440194
KIPT 282354Z 00000KT 10SM CLR 28/18 A2996 RMK AO2 SLP142 T02830178 10328 20283 56002
KIPT 282254Z 22003KT 10SM CLR 31/16 A2997 RMK AO2 SLP144 T03060156
KIPT 282154Z 18005KT 10SM CLR 31/16 A2995 RMK AO2 SLP138 T03110161
KIPT 282054Z 21007KT 10SM CLR 32/16 A2997 RMK AO2 SLP143 T03170156 58007
KIPT 281954Z 29005KT 10SM CLR 33/16 A2998 RMK AO2 SLP146 T03280156
KIPT 281854Z 00000KT 10SM CLR 32/18 A2998 RMK AO2 SLP148 T03170178
KIPT 281754Z 14003KT 10SM FEW050 31/14 A2999 RMK AO2 SLP151 T03060144 10311 20194 58016
KIPT 281654Z 27004KT 10SM FEW035 31/15 A3001 RMK AO2 SLP157 T03060150
KIPT 281554Z 00000KT 10SM FEW035 27/19 A3003 RMK AO2 SLP163 T02670194
KIPT 281454Z VRB03KT 9SM CLR 24/20 A3004 RMK AO2 SLP168 T02440200 58004
KIPT 281422Z 23005KT 7SM SCT006 23/19 A3004 RMK AO2 T02280194
KIPT 281416Z VRB03KT 3SM HZ BKN006 23/19 A3005 RMK AO2 T02280194
KIPT 281403Z 24004KT 2 1/2SM HZ OVC006 22/19 A3005 RMK AO2 T02170189
KIPT 281354Z 25004KT 2SM HZ OVC005 22/19 A3005 RMK AO2 SLP172 T02170189
KIPT 281341Z VRB04KT 2SM BR OVC005 21/19 A3005 RMK AO2 T02110189
KIPT 281315Z VRB05KT 2SM BR OVC004 21/19 A3005 RMK AO2 T02060189
KIPT 281254Z 30004KT 1 1/2SM BR OVC003 21/19 A3006 RMK AO2 SLP174 T02060189
KIPT 281203Z 29004KT 1 1/4SM BR OVC002 20/19 A3005 RMK AO2 T02000189
KIPT 281154Z 29003KT 3/4SM BR OVC002 19/19 A3005 RMK AO2 SLP172 T01940189 10206 20194 51008
KIPT 281054Z 27004KT 1/2SM FG OVC002 20/19 A3005 RMK AO2 SLP171 T02000189
KIPT 281020Z 30003KT 1/2SM FG OVC002 19/19 A3003 RMK AO2 T01940189
KIPT 281005Z AUTO 32004KT 1SM BR OVC002 20/19 A3003 RMK AO2 T02000189
KIPT 280954Z AUTO 28004KT 2 1/2SM BR OVC002 20/19 A3003 RMK AO2 SLP166 T02000189
KIPT 280919Z AUTO 00000KT 1 3/4SM BR OVC003 20/19 A3003 RMK AO2 T02000189
KIPT 280854Z AUTO 00000KT 4SM BR OVC003 21/19 A3003 RMK AO2 SLP163 T02060189 56003
KIPT 280754Z AUTO 00000KT 3SM BR OVC003 21/19 A3003 RMK AO2 SLP164 T02060189
KIPT 280742Z AUTO 00000KT 4SM BR OVC004 21/19 A3003 RMK AO2 T02060189
KIPT 280715Z AUTO 00000KT 5SM BR OVC005 20/18 A3003 RMK AO2 T02000183
KIPT 280704Z AUTO 00000KT 5SM BR BKN006 19/18 A3003 RMK AO2 T01940183
KIPT 280654Z AUTO 00000KT 5SM BR BKN004 20/19 A3003 RMK AO2 SLP164 T02000189
KIPT 280610Z AUTO 00000KT 4SM BR FEW004 20/19 A3003 RMK AO2 T02000189
KIPT 280554Z AUTO 29003KT 5SM BR CLR 20/19 A3003 RMK AO2 SLP166 T02000189 10272 20200 51007
KIPT 280454Z AUTO 36003KT 6SM BR CLR 21/19 A3003 RMK AO2 SLP164 T02110194 402940211
KIPT 280354Z AUTO 00000KT 7SM CLR 22/19 A3002 RMK AO2 SLP164 T02170194
KIPT 280254Z AUTO 00000KT 7SM CLR 22/19 A3001 RMK AO2 SLP160 T02170194 53013
KIPT 280154Z 00000KT 8SM CLR 23/21 A3000 RMK AO2 SLP156 T02280206
KIPT 280054Z 00000KT 10SM CLR 24/21 A2998 RMK AO2 SLP149 T02440206
KIPT 272354Z 00000KT 10SM CLR 27/20 A2997 RMK AO2 SLP146 T02720200 10294 20272 53003
KIPT 272254Z 19003KT 10SM CLR 28/20 A2997 RMK AO2 SLP143 T02780200
KIPT 272154Z 12003KT 10SM FEW110 29/19 A2996 RMK AO2 SLP141 T02890194